createdAt,value
2018-01-16T00:00:08.299Z,7.86
2018-01-16T00:02:37.446Z,7.87
2018-01-16T00:07:35.946Z,7.84
2018-01-16T00:10:05.482Z,7.74
2018-01-16T00:12:34.564Z,7.88
2018-01-16T00:15:04.436Z,7.90
2018-01-16T00:17:33.698Z,7.93
2018-01-16T00:20:03.660Z,7.90
2018-01-16T00:22:41.891Z,7.87
2018-01-16T00:25:11.014Z,7.89
2018-01-16T00:27:40.161Z,7.95
2018-01-16T00:30:09.624Z,7.94
2018-01-16T00:32:38.775Z,7.95
2018-01-16T00:35:07.877Z,7.96
2018-01-16T00:37:37.307Z,8.02
2018-01-16T00:40:06.418Z,8.08
2018-01-16T00:42:35.614Z,8.10
2018-01-16T00:45:04.744Z,8.11
2018-01-16T00:47:33.863Z,8.15
2018-01-16T00:50:04.447Z,8.18
2018-01-16T00:52:33.549Z,8.38
2018-01-16T00:55:02.851Z,8.46
2018-01-16T00:57:31.942Z,8.60
2018-01-16T01:00:03.042Z,8.69
2018-01-16T01:02:32.458Z,8.73
2018-01-16T01:05:01.922Z,8.87
2018-01-16T01:07:31.014Z,8.88
2018-01-16T01:10:00.407Z,8.91
2018-01-16T01:12:29.621Z,8.96
2018-01-16T01:14:58.708Z,9.02
2018-01-16T01:17:28.089Z,9.01
2018-01-16T01:19:57.586Z,9.01
2018-01-16T01:22:26.695Z,9.07
2018-01-16T01:24:56.380Z,9.12
2018-01-16T01:27:25.446Z,9.12
2018-01-16T01:29:54.522Z,9.22
2018-01-16T01:32:23.926Z,9.26
2018-01-16T01:34:53.067Z,9.24
2018-01-16T01:37:22.162Z,9.19
2018-01-16T01:39:51.640Z,9.16
2018-01-16T01:42:20.695Z,9.21
2018-01-16T01:44:49.948Z,9.19
2018-01-16T01:47:19.653Z,9.24
2018-01-16T01:49:48.749Z,9.30
2018-01-16T01:52:17.910Z,9.31
2018-01-16T01:54:48.374Z,9.35
2018-01-16T01:57:17.598Z,9.37
2018-01-16T01:59:46.683Z,9.40
2018-01-16T02:02:16.342Z,9.39
2018-01-16T02:04:45.463Z,9.42
2018-01-16T02:07:14.571Z,9.45
2018-01-16T02:09:43.961Z,9.45
2018-01-16T02:12:13.087Z,9.40
2018-01-16T02:14:42.251Z,9.40
2018-01-16T02:17:11.327Z,9.38
2018-01-16T02:19:40.520Z,9.35
2018-01-16T02:22:09.899Z,9.34
2018-01-16T02:24:38.979Z,9.33
2018-01-16T02:27:08.064Z,9.36
2018-01-16T02:29:37.137Z,9.32
2018-01-16T02:32:07.056Z,9.29
2018-01-16T02:34:36.447Z,9.36
2018-01-16T02:37:05.636Z,9.38
2018-01-16T02:39:34.840Z,9.37
2018-01-16T02:42:04.482Z,9.36
2018-01-16T02:44:33.687Z,9.40
2018-01-16T02:47:03.661Z,9.45
2018-01-16T02:49:32.862Z,9.49
2018-01-16T02:52:02.749Z,9.52
2018-01-16T02:54:32.226Z,9.54
2018-01-16T02:57:10.323Z,9.57
2018-01-16T02:59:39.873Z,9.59
2018-01-16T03:02:09.190Z,9.59
2018-01-16T03:04:38.291Z,9.61
2018-01-16T03:07:07.950Z,9.65
2018-01-16T03:09:37.012Z,9.61
2018-01-16T03:12:06.235Z,9.60
2018-01-16T03:14:35.647Z,9.60
2018-01-16T03:17:04.886Z,9.51
2018-01-16T03:19:33.974Z,9.43
2018-01-16T03:22:05.187Z,9.46
2018-01-16T03:24:34.282Z,9.40
2018-01-16T03:27:03.850Z,9.36
2018-01-16T03:29:32.941Z,9.31
2018-01-16T03:32:03.080Z,9.25
2018-01-16T03:34:32.164Z,9.36
2018-01-16T03:37:01.264Z,9.36
2018-01-16T03:39:30.687Z,9.34
2018-01-16T03:41:59.779Z,9.38
2018-01-16T03:44:28.935Z,9.34
2018-01-16T03:46:58.330Z,9.28
2018-01-16T03:49:27.389Z,9.35
2018-01-16T03:51:56.473Z,9.23
2018-01-16T03:54:25.902Z,9.26
2018-01-16T03:56:54.979Z,9.23
2018-01-16T03:59:24.059Z,9.29
2018-01-16T04:01:53.646Z,9.19
2018-01-16T04:04:22.735Z,9.07
2018-01-16T04:06:51.861Z,9.05
2018-01-16T04:09:21.245Z,8.98
2018-01-16T04:11:50.380Z,9.00
2018-01-16T04:14:19.472Z,9.00
2018-01-16T04:16:48.645Z,8.95
2018-01-16T04:19:18.080Z,8.99
2018-01-16T04:21:47.550Z,8.91
2018-01-16T04:24:16.633Z,8.96
2018-01-16T04:26:45.741Z,8.77
2018-01-16T04:29:15.144Z,8.86
2018-01-16T04:31:44.241Z,8.92
2018-01-16T04:34:13.340Z,8.84
2018-01-16T04:36:42.726Z,8.87
2018-01-16T04:39:11.847Z,8.81
2018-01-16T04:41:40.955Z,8.80
2018-01-16T04:44:10.435Z,8.75
2018-01-16T04:46:39.527Z,8.71
2018-01-16T04:49:08.588Z,8.70
2018-01-16T04:51:37.964Z,8.63
2018-01-16T04:54:07.158Z,8.72
2018-01-16T04:56:36.253Z,8.74
2018-01-16T04:59:05.673Z,8.79
2018-01-16T05:01:34.781Z,8.74
2018-01-16T05:04:04.576Z,8.78
2018-01-16T05:06:33.685Z,8.80
2018-01-16T05:09:03.375Z,8.85
2018-01-16T05:11:32.878Z,8.85
2018-01-16T05:14:02.327Z,8.86
2018-01-16T05:16:31.414Z,8.85
2018-01-16T05:19:00.738Z,8.75
2018-01-16T05:21:30.062Z,8.84
2018-01-16T05:23:59.600Z,8.92
2018-01-16T05:26:28.718Z,8.92
2018-01-16T05:28:57.783Z,8.97
2018-01-16T05:31:27.202Z,9.04
2018-01-16T05:33:56.323Z,9.06
2018-01-16T05:36:25.402Z,9.10
2018-01-16T05:38:54.784Z,9.10
2018-01-16T05:41:24.074Z,9.04
2018-01-16T05:43:53.820Z,8.98
2018-01-16T05:46:23.298Z,8.88
2018-01-16T05:48:52.566Z,8.84
2018-01-16T05:51:21.650Z,8.78
2018-01-16T05:53:51.077Z,8.82
2018-01-16T05:56:20.180Z,8.80
2018-01-16T05:58:49.363Z,8.71
2018-01-16T06:01:18.759Z,8.73
2018-01-16T06:03:48.837Z,8.66
2018-01-16T06:06:18.083Z,8.68
2018-01-16T06:08:47.541Z,8.73
2018-01-16T06:11:16.654Z,8.58
2018-01-16T06:13:45.740Z,8.55
2018-01-16T06:16:15.691Z,8.59
2018-01-16T06:18:45.092Z,8.60
2018-01-16T06:21:14.305Z,8.61
2018-01-16T06:23:43.768Z,8.68
2018-01-16T06:26:13.060Z,8.67
2018-01-16T06:28:42.160Z,8.65
2018-01-16T06:31:11.589Z,8.69
2018-01-16T06:33:40.721Z,8.69
2018-01-16T06:36:10.453Z,8.58
2018-01-16T06:38:39.868Z,8.65
2018-01-16T06:41:08.984Z,8.65
2018-01-16T06:43:38.070Z,8.66
2018-01-16T06:46:07.872Z,8.66
2018-01-16T06:48:37.013Z,8.64
2018-01-16T06:51:06.159Z,8.68
2018-01-16T06:53:35.556Z,8.71
2018-01-16T06:56:06.087Z,8.77
2018-01-16T06:58:35.196Z,8.75
2018-01-16T07:01:05.813Z,8.75
2018-01-16T07:03:34.970Z,8.73
2018-01-16T07:06:05.095Z,8.70
2018-01-16T07:08:34.509Z,8.74
2018-01-16T07:11:05.323Z,8.83
2018-01-16T07:13:34.511Z,8.86
2018-01-16T07:18:49.716Z,8.97
2018-01-16T07:21:20.267Z,8.99
2018-01-16T07:23:49.586Z,9.03
2018-01-16T07:26:19.404Z,9.03
2018-01-16T07:28:48.811Z,9.07
2018-01-16T07:31:17.960Z,9.08
2018-01-16T07:33:47.095Z,9.13
2018-01-16T07:36:16.522Z,9.11
2018-01-16T07:38:45.666Z,9.13
2018-01-16T07:41:14.844Z,9.18
2018-01-16T07:43:44.004Z,9.10
2018-01-16T07:46:13.134Z,9.15
2018-01-16T07:48:42.538Z,9.11
2018-01-16T07:51:11.696Z,9.12
2018-01-16T07:53:40.795Z,9.09
2018-01-16T07:56:09.968Z,9.10
2018-01-16T07:58:39.070Z,9.02
2018-01-16T08:01:08.463Z,9.02
2018-01-16T08:03:37.564Z,9.06
2018-01-16T08:06:06.711Z,8.98
2018-01-16T08:08:35.978Z,8.95
2018-01-16T08:11:05.682Z,8.97
2018-01-16T08:13:34.817Z,9.00
2018-01-16T08:16:06.374Z,8.98
2018-01-16T08:18:35.608Z,8.98
2018-01-16T08:21:05.378Z,8.93
2018-01-16T08:23:34.815Z,8.98
2018-01-16T08:26:04.618Z,8.85
2018-01-16T08:28:33.744Z,8.89
2018-01-16T08:31:04.320Z,8.93
2018-01-16T08:33:33.448Z,8.87
2018-01-16T08:36:03.857Z,8.90
2018-01-16T08:38:33.278Z,8.86
2018-01-16T08:41:02.912Z,8.90
2018-01-16T08:43:32.037Z,8.95
2018-01-16T08:46:02.592Z,8.87
2018-01-16T08:48:31.694Z,8.90
2018-01-16T08:51:00.910Z,8.89
2018-01-16T08:53:31.458Z,8.90
2018-01-16T08:56:00.712Z,8.81
2018-01-16T08:58:29.875Z,8.83
2018-01-16T09:00:59.247Z,8.81
2018-01-16T09:03:28.472Z,8.86
2018-01-16T09:05:57.583Z,8.96
2018-01-16T09:08:27.001Z,9.05
2018-01-16T09:10:56.132Z,9.02
2018-01-16T09:13:25.271Z,9.10
2018-01-16T09:15:54.754Z,9.22
2018-01-16T09:18:23.845Z,9.33
2018-01-16T09:20:53.088Z,9.39
2018-01-16T09:23:22.501Z,9.44
2018-01-16T09:25:51.623Z,9.43
2018-01-16T09:28:20.751Z,9.55
2018-01-16T09:30:50.311Z,9.51
2018-01-16T09:33:19.410Z,9.56
2018-01-16T09:35:48.512Z,9.61
2018-01-16T09:38:17.960Z,9.74
2018-01-16T09:40:47.050Z,9.74
2018-01-16T09:43:16.161Z,9.79
2018-01-16T09:45:45.564Z,9.81
2018-01-16T09:48:14.672Z,9.99
2018-01-16T09:50:43.785Z,10.12
2018-01-16T09:53:12.932Z,10.17
2018-01-16T09:55:42.041Z,10.13
2018-01-16T09:58:11.163Z,10.10
2018-01-16T10:00:40.639Z,10.14
2018-01-16T10:03:09.727Z,10.00
2018-01-16T10:05:38.838Z,10.01
2018-01-16T10:08:08.545Z,9.89
2018-01-16T10:10:37.643Z,9.88
2018-01-16T10:13:06.760Z,9.69
2018-01-16T10:15:36.180Z,9.69
2018-01-16T10:18:06.018Z,9.59
2018-01-16T10:20:35.110Z,9.57
2018-01-16T10:23:04.879Z,9.54
2018-01-16T10:25:33.995Z,9.54
2018-01-16T10:28:05.644Z,9.56
2018-01-16T10:30:35.336Z,9.59
2018-01-16T10:33:04.810Z,9.54
2018-01-16T10:35:33.966Z,9.58
2018-01-16T10:38:04.927Z,9.72
2018-01-16T10:40:34.398Z,9.63
2018-01-16T10:43:05.216Z,9.77
2018-01-16T10:45:34.634Z,9.80
2018-01-16T10:48:06.131Z,9.88
2018-01-16T10:50:35.683Z,9.94
2018-01-16T10:53:04.801Z,9.94
2018-01-16T10:55:34.100Z,9.91
2018-01-16T10:58:06.464Z,9.41
2018-01-16T11:00:35.980Z,8.84
2018-01-16T11:03:19.213Z,8.62
2018-01-16T11:05:48.810Z,8.51
2018-01-16T11:08:17.942Z,8.47
2018-01-16T11:10:59.647Z,8.55
2018-01-16T11:13:28.774Z,8.47
2018-01-16T11:15:57.953Z,8.47
2018-01-16T11:18:27.401Z,8.59
2018-01-16T11:20:57.880Z,8.56
2018-01-16T11:23:27.047Z,8.62
2018-01-16T11:25:57.362Z,8.72
2018-01-16T11:28:26.477Z,8.73
2018-01-16T11:30:56.031Z,8.83
2018-01-16T11:33:25.706Z,8.88
2018-01-16T11:53:10.314Z,9.33
2018-01-16T11:55:40.059Z,9.38
2018-01-16T11:58:09.362Z,9.36
2018-01-16T12:00:38.499Z,9.39
2018-01-16T12:03:08.744Z,9.51
2018-01-16T12:05:38.017Z,9.63
2018-01-16T12:08:07.180Z,9.74
2018-01-16T12:10:36.824Z,9.83
2018-01-16T12:13:06.579Z,9.81
2018-01-16T12:15:35.892Z,9.91
2018-01-16T12:18:06.634Z,10.35
2018-01-16T12:20:35.789Z,10.36
2018-01-16T12:23:04.942Z,10.34
2018-01-16T12:25:34.596Z,10.11
2018-01-16T12:28:04.936Z,10.20
2018-01-16T12:30:34.676Z,10.34
2018-01-16T12:33:06.446Z,10.50
2018-01-16T12:35:36.134Z,10.48
2018-01-16T12:38:07.382Z,10.73
2018-01-16T12:40:36.518Z,10.94
2018-01-16T12:43:06.763Z,10.99
2018-01-16T12:45:36.223Z,11.11
2018-01-16T12:48:06.506Z,10.83
2018-01-16T12:50:36.128Z,10.66
2018-01-16T12:53:05.647Z,10.59
2018-01-16T12:55:34.784Z,10.56
2018-01-16T12:58:05.628Z,10.42
2018-01-16T13:00:34.880Z,10.39
2018-01-16T13:03:04.367Z,10.40
2018-01-16T13:05:34.027Z,10.29
2018-01-16T13:08:05.632Z,10.26
2018-01-16T13:10:34.935Z,10.26
2018-01-16T13:13:05.040Z,10.15
2018-01-16T13:21:24.627Z,10.12
2018-01-16T13:23:53.981Z,10.16
2018-01-16T13:26:23.481Z,10.17
2018-01-16T13:28:53.139Z,10.16
2018-01-16T13:31:22.346Z,10.12
2018-01-16T13:33:51.509Z,10.11
2018-01-16T13:36:20.714Z,10.12
2018-01-16T13:38:49.866Z,10.14
2018-01-16T13:41:19.303Z,10.15
2018-01-16T13:43:48.474Z,10.09
2018-01-16T13:46:17.676Z,10.09
2018-01-16T13:48:47.798Z,10.11
2018-01-16T13:51:16.985Z,9.98
2018-01-16T13:53:46.661Z,10.00
2018-01-16T13:56:16.015Z,10.12
2018-01-16T13:58:45.183Z,10.03
2018-01-16T14:01:14.604Z,10.05
2018-01-16T14:03:43.760Z,10.00
2018-01-16T14:06:14.848Z,9.94
2018-01-16T14:08:44.327Z,10.01
2018-01-16T14:11:13.432Z,9.88
2018-01-16T14:13:42.575Z,9.85
2018-01-16T14:16:11.996Z,9.79
2018-01-16T14:18:41.131Z,9.63
2018-01-16T14:21:10.264Z,9.47
2018-01-16T14:23:40.832Z,9.33
2018-01-16T14:26:10.020Z,9.13
2018-01-16T14:28:39.160Z,9.00
2018-01-16T14:31:10.523Z,8.79
2018-01-16T14:33:39.707Z,8.69
2018-01-16T14:36:11.031Z,8.75
2018-01-16T14:38:40.458Z,8.72
2018-01-16T14:41:09.642Z,8.56
2018-01-16T14:43:38.827Z,8.69
2018-01-16T14:46:08.229Z,8.60
2018-01-16T14:48:37.387Z,8.57
2018-01-16T14:51:07.668Z,8.62
2018-01-16T14:54:07.759Z,8.54
2018-01-16T14:56:36.959Z,8.50
2018-01-16T14:59:06.415Z,8.49
2018-01-16T15:01:35.596Z,8.36
2018-01-16T15:04:07.683Z,8.44
2018-01-16T15:06:37.354Z,8.38
2018-01-16T15:09:06.770Z,8.49
2018-01-16T15:11:35.948Z,8.52
2018-01-16T15:14:05.812Z,8.53
2018-01-16T15:16:35.087Z,8.53
2018-01-16T15:19:07.482Z,8.47
2018-01-16T15:21:38.010Z,8.54
2018-01-16T15:24:07.433Z,8.55
2018-01-16T15:26:36.593Z,8.56
2018-01-16T15:29:06.256Z,8.62
2018-01-16T15:31:35.397Z,8.69
2018-01-16T15:34:14.216Z,8.72
2018-01-16T15:36:43.975Z,8.71
2018-01-16T15:39:13.200Z,8.74
2018-01-16T15:41:42.387Z,8.82
2018-01-16T15:44:13.025Z,8.78
2018-01-16T15:46:42.149Z,8.82
2018-01-16T15:49:11.312Z,8.87
2018-01-16T15:51:40.742Z,8.84
2018-01-16T15:54:10.548Z,8.82
2018-01-16T15:56:40.279Z,8.84
2018-01-16T15:59:09.744Z,8.81
2018-01-16T16:01:38.868Z,8.84
2018-01-16T16:04:08.799Z,8.82
2018-01-16T16:06:38.786Z,8.82
2018-01-16T16:09:07.964Z,8.79
2018-01-16T16:11:37.132Z,8.75
2018-01-16T16:14:08.395Z,8.80
2018-01-16T16:16:37.560Z,8.82
2018-01-16T16:19:06.907Z,8.82
2018-01-16T16:21:36.080Z,8.75
2018-01-16T16:24:06.400Z,8.73
2018-01-16T16:26:35.901Z,8.73
2018-01-16T16:29:06.539Z,8.76
2018-01-16T16:31:35.716Z,8.80
2018-01-16T16:34:07.952Z,8.79
2018-01-16T16:36:37.082Z,8.75
2018-01-16T16:39:06.681Z,8.78
2018-01-16T16:41:37.111Z,8.75
2018-01-16T16:44:08.215Z,8.73
2018-01-16T16:46:37.336Z,8.77
2018-01-16T16:49:07.882Z,8.78
2018-01-16T16:51:37.094Z,8.78
2018-01-16T16:54:06.410Z,8.84
2018-01-16T16:56:37.058Z,8.84
2018-01-16T16:59:06.385Z,8.78
2018-01-16T17:01:35.872Z,8.77
2018-01-16T17:04:07.993Z,8.87
2018-01-16T17:06:37.303Z,8.81
2018-01-16T17:09:07.160Z,8.80
2018-01-16T17:11:36.783Z,8.80
2018-01-16T17:14:06.538Z,8.83
2018-01-16T17:16:35.679Z,8.86
2018-01-16T17:19:05.529Z,8.80
2018-01-16T17:21:34.761Z,8.80
2018-01-16T17:24:05.771Z,8.86
2018-01-16T17:26:35.513Z,8.91
2018-01-16T17:29:05.422Z,8.89
2018-01-16T17:31:34.712Z,8.89
2018-01-16T17:34:06.820Z,8.88
2018-01-16T17:36:36.214Z,8.83
2018-01-16T17:39:05.752Z,8.80
2018-01-16T17:41:35.156Z,8.71
2018-01-16T17:44:05.599Z,8.60
2018-01-16T17:46:34.829Z,8.64
2018-01-16T17:49:05.466Z,8.62
2018-01-16T17:51:34.687Z,8.57
2018-01-16T17:54:05.979Z,8.53
2018-01-16T17:56:35.914Z,8.50
2018-01-16T17:59:05.506Z,8.33
2018-01-16T18:01:35.543Z,8.31
2018-01-16T18:04:06.369Z,8.19
2018-01-16T18:06:35.658Z,8.17
2018-01-16T18:09:07.182Z,8.14
2018-01-16T18:11:36.660Z,8.07
2018-01-16T18:14:05.954Z,8.03
2018-01-16T18:16:35.180Z,8.03
2018-01-16T18:21:40.035Z,7.95
2018-01-16T18:24:11.828Z,7.86
2018-01-16T18:26:41.639Z,7.86
2018-01-16T18:29:10.784Z,7.85
2018-01-16T18:31:39.928Z,7.82
2018-01-16T18:34:09.396Z,7.71
2018-01-16T18:36:38.522Z,7.65
2018-01-16T18:39:07.659Z,7.56
2018-01-16T18:41:37.086Z,7.62
2018-01-16T18:44:07.358Z,7.62
2018-01-16T18:46:37.436Z,7.58
2018-01-16T18:49:07.194Z,7.57
2018-01-16T18:51:36.348Z,7.61
2018-01-16T18:54:06.540Z,7.52
2018-01-16T18:56:36.104Z,7.53
2018-01-16T18:59:05.724Z,7.55
2018-01-16T19:01:34.954Z,7.57
2018-01-16T19:04:06.127Z,7.52
2018-01-16T19:06:35.344Z,7.38
2018-01-16T19:09:05.659Z,7.37
2018-01-16T19:11:35.294Z,7.42
2018-01-16T19:14:06.735Z,7.43
2018-01-16T19:16:35.895Z,7.40
2018-01-16T19:19:05.607Z,7.39
2018-01-16T19:21:34.772Z,7.25
2018-01-16T19:24:05.795Z,7.26
2018-01-16T19:26:35.543Z,7.23
2018-01-16T19:29:05.175Z,7.21
2018-01-16T19:31:34.379Z,7.26
2018-01-16T19:34:04.955Z,7.26
2018-01-16T19:36:34.257Z,7.23
2018-01-16T19:39:03.723Z,7.19
2018-01-16T19:41:33.227Z,7.14
2018-01-16T19:44:04.399Z,7.04
2018-01-16T19:46:33.636Z,7.04
2018-01-16T19:49:03.803Z,7.04
2018-01-16T19:51:33.045Z,7.02
2018-01-16T19:54:03.336Z,7.00
2018-01-16T19:56:38.224Z,6.97
2018-01-16T19:59:07.407Z,6.96
2018-01-16T20:01:36.550Z,6.89
2018-01-16T20:04:06.627Z,6.97
2018-01-16T20:06:35.783Z,7.02
2018-01-16T20:09:05.963Z,7.00
2018-01-16T20:11:35.438Z,7.05
2018-01-16T20:14:05.712Z,7.08
2018-01-16T20:16:34.908Z,7.05
2018-01-16T20:19:05.011Z,7.00
2018-01-16T20:21:34.243Z,7.01
2018-01-16T20:24:04.378Z,7.09
2018-01-16T20:26:33.837Z,7.02
2018-01-16T20:29:03.325Z,7.05
2018-01-16T20:31:32.601Z,6.97
2018-01-16T20:34:04.083Z,6.97
2018-01-16T20:36:33.644Z,6.92
2018-01-16T20:39:04.161Z,6.96
2018-01-16T20:41:33.384Z,6.92
2018-01-16T20:44:03.829Z,6.95
2018-01-16T20:46:33.259Z,6.95
2018-01-16T20:49:02.575Z,6.95
2018-01-16T20:51:31.768Z,7.05
2018-01-16T20:54:01.402Z,6.99
2018-01-16T20:56:30.633Z,7.05
2018-01-16T20:58:59.755Z,7.04
2018-01-16T21:01:29.187Z,7.01
2018-01-16T21:03:58.295Z,7.02
2018-01-16T21:06:27.374Z,7.02
2018-01-16T21:08:56.937Z,7.05
2018-01-16T21:11:26.706Z,7.05
2018-01-16T21:13:55.817Z,7.03
2018-01-16T21:16:26.939Z,6.97
2018-01-16T21:18:56.376Z,6.98
2018-01-16T21:21:26.288Z,6.97
2018-01-16T21:23:57.407Z,7.04
2018-01-16T21:26:26.727Z,7.06
2018-01-16T21:28:56.042Z,7.04
2018-01-16T21:31:25.544Z,7.02
2018-01-16T21:33:54.686Z,7.00
2018-01-16T21:36:24.019Z,7.04
2018-01-16T21:38:53.827Z,7.04
2018-01-16T21:41:22.948Z,7.09
2018-01-16T21:43:52.283Z,7.06
2018-01-16T21:46:21.660Z,7.03
2018-01-16T21:48:50.823Z,7.07
2018-01-16T21:51:20.021Z,7.07
2018-01-16T21:53:49.164Z,6.99
2018-01-16T21:56:18.278Z,7.04
2018-01-16T21:58:47.696Z,7.06
2018-01-16T22:01:16.846Z,6.96
2018-01-16T22:03:45.941Z,6.93
2018-01-16T22:06:16.366Z,6.98
2018-01-16T22:08:45.514Z,7.01
2018-01-16T22:11:14.906Z,7.08
2018-01-16T22:13:44.016Z,7.16
2018-01-16T22:16:13.188Z,7.20
2018-01-16T22:18:42.605Z,7.16
2018-01-16T22:21:11.749Z,7.21
2018-01-16T22:23:40.852Z,7.22
2018-01-16T22:26:10.140Z,7.22
2018-01-16T22:28:39.285Z,7.23
2018-01-16T22:31:08.646Z,7.17
2018-01-16T22:33:38.061Z,7.18
2018-01-16T22:36:07.179Z,7.25
2018-01-16T22:38:36.337Z,7.23
2018-01-16T22:41:05.899Z,7.18
2018-01-16T22:43:35.006Z,7.28
2018-01-16T22:46:05.483Z,7.28
2018-01-16T22:48:34.883Z,7.30
2018-01-16T22:51:04.386Z,7.28
2018-01-16T22:53:34.644Z,7.35
2018-01-16T22:56:05.799Z,7.36
2018-01-16T22:58:34.921Z,7.39
2018-01-16T23:01:05.151Z,7.35
2018-01-16T23:03:34.661Z,7.39
2018-01-16T23:06:05.549Z,7.35
2018-01-16T23:08:34.738Z,7.19
2018-01-16T23:11:04.546Z,7.25
2018-01-16T23:13:33.724Z,7.24
2018-01-16T23:16:04.259Z,7.32
2018-01-16T23:18:33.757Z,7.38
2018-01-16T23:21:03.137Z,7.35
2018-01-16T23:23:32.350Z,7.28
2018-01-16T23:26:02.595Z,7.22
2018-01-16T23:28:31.897Z,7.28
2018-01-16T23:31:01.035Z,7.28
2018-01-16T23:33:30.581Z,7.40
2018-01-16T23:35:59.706Z,7.46
2018-01-16T23:38:28.850Z,7.37
2018-01-16T23:40:58.268Z,7.39
2018-01-16T23:43:27.498Z,7.50
2018-01-16T23:45:56.653Z,7.51
2018-01-16T23:48:26.120Z,7.56
2018-01-16T23:50:55.266Z,7.58
2018-01-16T23:53:25.298Z,7.43
2018-01-16T23:55:54.779Z,7.54
2018-01-16T23:58:23.986Z,7.48
